sensor_id;sensor_type;location;lat;lon;timestamp;temperature;humidity
56046;DHT22;41913;51.030;3.706;2023-06-19T00:02:10;25.40;90.30
56046;DHT22;41913;51.030;3.706;2023-06-19T00:04:35;25.40;90.30
56046;DHT22;41913;51.030;3.706;2023-06-19T00:07:03;25.40;90.30
56046;DHT22;41913;51.030;3.706;2023-06-19T00:09:30;25.40;90.40
56046;DHT22;41913;51.030;3.706;2023-06-19T00:11:55;25.50;90.40
56046;DHT22;41913;51.030;3.706;2023-06-19T00:14:21;25.40;90.50
56046;DHT22;41913;51.030;3.706;2023-06-19T00:16:47;25.40;90.40
56046;DHT22;41913;51.030;3.706;2023-06-19T00:19:12;25.40;90.50
56046;DHT22;41913;51.030;3.706;2023-06-19T00:21:38;25.40;90.40
56046;DHT22;41913;51.030;3.706;2023-06-19T00:24:05;25.40;90.60
56046;DHT22;41913;51.030;3.706;2023-06-19T00:26:31;25.40;90.50
56046;DHT22;41913;51.030;3.706;2023-06-19T00:28:57;25.40;90.50
56046;DHT22;41913;51.030;3.706;2023-06-19T00:31:23;25.40;90.40
56046;DHT22;41913;51.030;3.706;2023-06-19T00:33:49;25.40;90.60
56046;DHT22;41913;51.030;3.706;2023-06-19T00:36:17;25.40;90.60
56046;DHT22;41913;51.030;3.706;2023-06-19T00:38:47;25.40;90.70
56046;DHT22;41913;51.030;3.706;2023-06-19T00:41:14;25.40;90.70
56046;DHT22;41913;51.030;3.706;2023-06-19T00:43:40;25.40;90.50
56046;DHT22;41913;51.030;3.706;2023-06-19T00:46:06;25.40;91.00
56046;DHT22;41913;51.030;3.706;2023-06-19T00:48:33;25.40;90.60
56046;DHT22;41913;51.030;3.706;2023-06-19T00:50:59;25.40;90.50
56046;DHT22;41913;51.030;3.706;2023-06-19T00:53:25;25.40;90.80
56046;DHT22;41913;51.030;3.706;2023-06-19T00:55:53;25.40;90.60
56046;DHT22;41913;51.030;3.706;2023-06-19T00:58:21;25.40;90.90
56046;DHT22;41913;51.030;3.706;2023-06-19T01:00:50;25.40;90.70
56046;DHT22;41913;51.030;3.706;2023-06-19T01:03:16;25.40;90.90
56046;DHT22;41913;51.030;3.706;2023-06-19T01:05:43;25.30;90.90
56046;DHT22;41913;51.030;3.706;2023-06-19T01:08:13;25.40;90.90
56046;DHT22;41913;51.030;3.706;2023-06-19T01:10:47;25.30;90.90
56046;DHT22;41913;51.030;3.706;2023-06-19T01:13:28;25.30;90.70
56046;DHT22;41913;51.030;3.706;2023-06-19T01:15:57;25.30;90.80
56046;DHT22;41913;51.030;3.706;2023-06-19T01:18:23;25.30;90.70
56046;DHT22;41913;51.030;3.706;2023-06-19T01:20:50;25.20;90.90
56046;DHT22;41913;51.030;3.706;2023-06-19T01:23:16;25.30;90.60
56046;DHT22;41913;51.030;3.706;2023-06-19T01:25:42;25.30;90.50
56046;DHT22;41913;51.030;3.706;2023-06-19T01:28:09;25.20;90.50
56046;DHT22;41913;51.030;3.706;2023-06-19T01:30:37;25.20;90.40
56046;DHT22;41913;51.030;3.706;2023-06-19T01:33:20;25.20;90.70
56046;DHT22;41913;51.030;3.706;2023-06-19T01:35:48;25.20;90.60
56046;DHT22;41913;51.030;3.706;2023-06-19T01:38:16;25.30;90.30
56046;DHT22;41913;51.030;3.706;2023-06-19T01:40:44;25.30;90.30
56046;DHT22;41913;51.030;3.706;2023-06-19T01:43:11;25.30;90.20
56046;DHT22;41913;51.030;3.706;2023-06-19T01:45:37;25.40;90.10
56046;DHT22;41913;51.030;3.706;2023-06-19T01:48:04;25.40;90.30
56046;DHT22;41913;51.030;3.706;2023-06-19T01:50:29;25.40;90.00
56046;DHT22;41913;51.030;3.706;2023-06-19T01:52:56;25.40;90.00
56046;DHT22;41913;51.030;3.706;2023-06-19T01:55:21;25.40;90.20
56046;DHT22;41913;51.030;3.706;2023-06-19T01:57:47;25.40;90.10
56046;DHT22;41913;51.030;3.706;2023-06-19T02:00:13;25.40;90.20
56046;DHT22;41913;51.030;3.706;2023-06-19T02:02:38;25.40;90.10
56046;DHT22;41913;51.030;3.706;2023-06-19T02:05:04;25.40;90.00
56046;DHT22;41913;51.030;3.706;2023-06-19T02:07:30;25.40;90.00
56046;DHT22;41913;51.030;3.706;2023-06-19T02:09:57;25.40;89.90
56046;DHT22;41913;51.030;3.706;2023-06-19T02:12:23;25.40;89.90
56046;DHT22;41913;51.030;3.706;2023-06-19T02:14:48;25.40;89.90
56046;DHT22;41913;51.030;3.706;2023-06-19T02:17:14;25.40;89.20
56046;DHT22;41913;51.030;3.706;2023-06-19T02:19:40;25.40;88.80
56046;DHT22;41913;51.030;3.706;2023-06-19T02:22:06;25.40;88.70
56046;DHT22;41913;51.030;3.706;2023-06-19T02:24:32;25.40;88.70
56046;DHT22;41913;51.030;3.706;2023-06-19T02:26:58;25.40;88.70
56046;DHT22;41913;51.030;3.706;2023-06-19T02:29:24;25.40;89.20
56046;DHT22;41913;51.030;3.706;2023-06-19T02:31:50;25.30;89.00
56046;DHT22;41913;51.030;3.706;2023-06-19T02:34:16;25.30;88.90
56046;DHT22;41913;51.030;3.706;2023-06-19T02:36:42;25.30;88.80
56046;DHT22;41913;51.030;3.706;2023-06-19T02:39:08;25.30;88.80
56046;DHT22;41913;51.030;3.706;2023-06-19T02:41:34;25.20;88.70
56046;DHT22;41913;51.030;3.706;2023-06-19T02:44:00;25.20;88.60
56046;DHT22;41913;51.030;3.706;2023-06-19T02:46:26;25.20;88.70
56046;DHT22;41913;51.030;3.706;2023-06-19T02:48:51;25.20;88.80
56046;DHT22;41913;51.030;3.706;2023-06-19T02:51:17;25.20;88.70
56046;DHT22;41913;51.030;3.706;2023-06-19T02:53:43;25.20;88.60
56046;DHT22;41913;51.030;3.706;2023-06-19T02:56:11;25.10;88.40
56046;DHT22;41913;51.030;3.706;2023-06-19T02:58:36;25.10;88.20
56046;DHT22;41913;51.030;3.706;2023-06-19T03:01:03;25.10;88.30
56046;DHT22;41913;51.030;3.706;2023-06-19T03:03:32;25.10;88.10
56046;DHT22;41913;51.030;3.706;2023-06-19T03:06:04;25.00;87.80
56046;DHT22;41913;51.030;3.706;2023-06-19T03:08:31;25.10;87.90
56046;DHT22;41913;51.030;3.706;2023-06-19T03:10:56;25.00;87.70
56046;DHT22;41913;51.030;3.706;2023-06-19T03:13:22;25.00;87.80
56046;DHT22;41913;51.030;3.706;2023-06-19T03:15:48;25.00;87.60
56046;DHT22;41913;51.030;3.706;2023-06-19T03:18:13;25.00;87.60
56046;DHT22;41913;51.030;3.706;2023-06-19T03:20:39;24.90;87.50
56046;DHT22;41913;51.030;3.706;2023-06-19T03:23:05;24.90;87.50
56046;DHT22;41913;51.030;3.706;2023-06-19T03:25:30;24.90;87.50
56046;DHT22;41913;51.030;3.706;2023-06-19T03:28:03;24.90;88.00
56046;DHT22;41913;51.030;3.706;2023-06-19T03:30:30;24.90;87.50
56046;DHT22;41913;51.030;3.706;2023-06-19T03:32:56;24.90;87.30
56046;DHT22;41913;51.030;3.706;2023-06-19T03:35:22;24.90;87.30
56046;DHT22;41913;51.030;3.706;2023-06-19T03:37:48;24.90;87.40
56046;DHT22;41913;51.030;3.706;2023-06-19T03:40:13;24.90;87.30
56046;DHT22;41913;51.030;3.706;2023-06-19T03:42:40;24.90;87.30
56046;DHT22;41913;51.030;3.706;2023-06-19T03:45:06;24.90;87.30
56046;DHT22;41913;51.030;3.706;2023-06-19T03:47:32;24.90;87.30
56046;DHT22;41913;51.030;3.706;2023-06-19T03:49:57;24.90;87.30
56046;DHT22;41913;51.030;3.706;2023-06-19T03:52:23;24.80;87.10
56046;DHT22;41913;51.030;3.706;2023-06-19T03:54:49;24.80;87.20
56046;DHT22;41913;51.030;3.706;2023-06-19T03:57:15;24.80;87.10
56046;DHT22;41913;51.030;3.706;2023-06-19T03:59:40;24.80;87.00
56046;DHT22;41913;51.030;3.706;2023-06-19T04:02:06;24.80;87.00
56046;DHT22;41913;51.030;3.706;2023-06-19T04:04:32;24.70;87.50
56046;DHT22;41913;51.030;3.706;2023-06-19T04:06:57;24.80;86.90
56046;DHT22;41913;51.030;3.706;2023-06-19T04:09:25;24.80;86.90
56046;DHT22;41913;51.030;3.706;2023-06-19T04:11:50;24.70;86.90
56046;DHT22;41913;51.030;3.706;2023-06-19T04:14:16;24.70;86.90
56046;DHT22;41913;51.030;3.706;2023-06-19T04:16:42;24.70;86.90
56046;DHT22;41913;51.030;3.706;2023-06-19T04:19:07;24.70;86.80
56046;DHT22;41913;51.030;3.706;2023-06-19T04:21:33;24.70;86.90
56046;DHT22;41913;51.030;3.706;2023-06-19T04:23:59;24.70;86.90
56046;DHT22;41913;51.030;3.706;2023-06-19T04:26:24;24.70;87.00
56046;DHT22;41913;51.030;3.706;2023-06-19T04:28:50;24.60;86.80
56046;DHT22;41913;51.030;3.706;2023-06-19T04:31:16;24.60;86.80
56046;DHT22;41913;51.030;3.706;2023-06-19T04:33:45;24.60;86.70
56046;DHT22;41913;51.030;3.706;2023-06-19T04:36:11;24.60;86.60
56046;DHT22;41913;51.030;3.706;2023-06-19T04:38:37;24.60;86.50
56046;DHT22;41913;51.030;3.706;2023-06-19T04:41:02;24.60;86.40
56046;DHT22;41913;51.030;3.706;2023-06-19T04:43:28;24.60;86.40
56046;DHT22;41913;51.030;3.706;2023-06-19T04:45:54;24.50;86.80
56046;DHT22;41913;51.030;3.706;2023-06-19T04:48:20;24.50;86.20
56046;DHT22;41913;51.030;3.706;2023-06-19T04:50:52;24.50;86.20
56046;DHT22;41913;51.030;3.706;2023-06-19T04:53:17;24.50;86.20
56046;DHT22;41913;51.030;3.706;2023-06-19T04:55:43;24.50;86.10
56046;DHT22;41913;51.030;3.706;2023-06-19T04:58:09;24.50;86.20
56046;DHT22;41913;51.030;3.706;2023-06-19T05:00:34;24.50;86.10
56046;DHT22;41913;51.030;3.706;2023-06-19T05:03:00;24.50;86.10
56046;DHT22;41913;51.030;3.706;2023-06-19T05:05:28;24.50;86.00
56046;DHT22;41913;51.030;3.706;2023-06-19T05:07:59;24.50;86.00
56046;DHT22;41913;51.030;3.706;2023-06-19T05:10:25;24.50;86.00
56046;DHT22;41913;51.030;3.706;2023-06-19T05:12:50;24.50;86.10
56046;DHT22;41913;51.030;3.706;2023-06-19T05:15:16;24.40;86.10
56046;DHT22;41913;51.030;3.706;2023-06-19T05:17:42;24.40;85.90
56046;DHT22;41913;51.030;3.706;2023-06-19T05:20:08;24.40;85.80
56046;DHT22;41913;51.030;3.706;2023-06-19T05:22:34;24.40;85.60
56046;DHT22;41913;51.030;3.706;2023-06-19T05:25:00;24.40;85.40
56046;DHT22;41913;51.030;3.706;2023-06-19T05:27:26;24.40;85.60
56046;DHT22;41913;51.030;3.706;2023-06-19T05:29:52;24.40;85.20
56046;DHT22;41913;51.030;3.706;2023-06-19T05:32:17;24.40;85.20
56046;DHT22;41913;51.030;3.706;2023-06-19T05:34:43;24.40;85.20
56046;DHT22;41913;51.030;3.706;2023-06-19T05:37:10;24.40;85.30
56046;DHT22;41913;51.030;3.706;2023-06-19T05:39:36;24.40;85.40
56046;DHT22;41913;51.030;3.706;2023-06-19T05:42:02;24.40;85.20
56046;DHT22;41913;51.030;3.706;2023-06-19T05:44:28;24.30;85.00
56046;DHT22;41913;51.030;3.706;2023-06-19T05:46:53;24.30;85.30
56046;DHT22;41913;51.030;3.706;2023-06-19T05:49:21;24.20;85.50
56046;DHT22;41913;51.030;3.706;2023-06-19T05:51:47;24.10;85.90
56046;DHT22;41913;51.030;3.706;2023-06-19T05:54:13;24.00;85.70
56046;DHT22;41913;51.030;3.706;2023-06-19T05:56:39;23.90;86.00
56046;DHT22;41913;51.030;3.706;2023-06-19T05:59:05;23.80;86.20
56046;DHT22;41913;51.030;3.706;2023-06-19T06:01:30;23.60;86.40
56046;DHT22;41913;51.030;3.706;2023-06-19T06:03:57;23.50;86.80
56046;DHT22;41913;51.030;3.706;2023-06-19T06:06:27;23.40;86.90
56046;DHT22;41913;51.030;3.706;2023-06-19T06:08:53;23.30;87.10
56046;DHT22;41913;51.030;3.706;2023-06-19T06:11:20;23.30;87.50
56046;DHT22;41913;51.030;3.706;2023-06-19T06:13:46;23.20;87.60
56046;DHT22;41913;51.030;3.706;2023-06-19T06:16:11;23.10;87.70
56046;DHT22;41913;51.030;3.706;2023-06-19T06:18:37;23.10;88.00
56046;DHT22;41913;51.030;3.706;2023-06-19T06:21:03;23.00;88.50
56046;DHT22;41913;51.030;3.706;2023-06-19T06:23:30;23.00;88.30
56046;DHT22;41913;51.030;3.706;2023-06-19T06:25:55;23.00;88.60
56046;DHT22;41913;51.030;3.706;2023-06-19T06:28:28;22.90;88.60
56046;DHT22;41913;51.030;3.706;2023-06-19T06:30:54;22.90;88.40
56046;DHT22;41913;51.030;3.706;2023-06-19T06:33:20;22.90;88.50
56046;DHT22;41913;51.030;3.706;2023-06-19T06:35:46;22.80;88.60
56046;DHT22;41913;51.030;3.706;2023-06-19T06:38:12;22.80;88.90
56046;DHT22;41913;51.030;3.706;2023-06-19T06:40:37;22.80;89.00
56046;DHT22;41913;51.030;3.706;2023-06-19T06:43:03;22.70;89.10
56046;DHT22;41913;51.030;3.706;2023-06-19T06:45:30;22.70;89.50
56046;DHT22;41913;51.030;3.706;2023-06-19T06:47:57;22.80;90.10
56046;DHT22;41913;51.030;3.706;2023-06-19T06:50:22;22.80;90.00
56046;DHT22;41913;51.030;3.706;2023-06-19T06:52:50;22.90;89.90
56046;DHT22;41913;51.030;3.706;2023-06-19T06:55:16;22.90;89.80
56046;DHT22;41913;51.030;3.706;2023-06-19T06:57:41;22.90;89.60
56046;DHT22;41913;51.030;3.706;2023-06-19T07:00:07;22.90;89.30
56046;DHT22;41913;51.030;3.706;2023-06-19T07:02:38;22.90;89.10
56046;DHT22;41913;51.030;3.706;2023-06-19T07:05:07;23.00;89.30
56046;DHT22;41913;51.030;3.706;2023-06-19T07:07:33;23.00;89.40
56046;DHT22;41913;51.030;3.706;2023-06-19T07:10:00;23.00;89.30
56046;DHT22;41913;51.030;3.706;2023-06-19T07:12:26;23.00;89.20
56046;DHT22;41913;51.030;3.706;2023-06-19T07:14:55;23.00;88.90
56046;DHT22;41913;51.030;3.706;2023-06-19T07:17:22;22.90;89.10
56046;DHT22;41913;51.030;3.706;2023-06-19T07:19:48;22.90;89.20
56046;DHT22;41913;51.030;3.706;2023-06-19T07:22:14;22.90;89.30
56046;DHT22;41913;51.030;3.706;2023-06-19T07:24:43;22.90;89.40
56046;DHT22;41913;51.030;3.706;2023-06-19T07:27:08;23.00;89.50
56046;DHT22;41913;51.030;3.706;2023-06-19T07:29:34;23.00;89.50
56046;DHT22;41913;51.030;3.706;2023-06-19T07:32:00;23.00;89.70
56046;DHT22;41913;51.030;3.706;2023-06-19T07:34:28;23.00;89.60
56046;DHT22;41913;51.030;3.706;2023-06-19T07:36:54;23.00;89.80
56046;DHT22;41913;51.030;3.706;2023-06-19T07:39:20;23.00;90.10
56046;DHT22;41913;51.030;3.706;2023-06-19T07:41:46;23.00;89.90
56046;DHT22;41913;51.030;3.706;2023-06-19T07:44:12;23.00;89.80
56046;DHT22;41913;51.030;3.706;2023-06-19T07:46:38;23.00;90.10
56046;DHT22;41913;51.030;3.706;2023-06-19T07:49:03;23.00;89.60
56046;DHT22;41913;51.030;3.706;2023-06-19T07:51:30;23.00;89.50
56046;DHT22;41913;51.030;3.706;2023-06-19T07:53:55;23.00;89.50
56046;DHT22;41913;51.030;3.706;2023-06-19T07:56:21;23.00;90.00
56046;DHT22;41913;51.030;3.706;2023-06-19T07:58:46;23.00;89.60
56046;DHT22;41913;51.030;3.706;2023-06-19T08:01:12;22.90;89.70
56046;DHT22;41913;51.030;3.706;2023-06-19T08:03:38;23.00;89.90
56046;DHT22;41913;51.030;3.706;2023-06-19T08:06:03;22.90;89.90
56046;DHT22;41913;51.030;3.706;2023-06-19T08:08:29;23.00;89.90
56046;DHT22;41913;51.030;3.706;2023-06-19T08:10:55;23.00;89.80
56046;DHT22;41913;51.030;3.706;2023-06-19T08:13:20;23.00;89.60
56046;DHT22;41913;51.030;3.706;2023-06-19T08:15:46;23.00;89.60
56046;DHT22;41913;51.030;3.706;2023-06-19T08:18:12;22.90;89.50
56046;DHT22;41913;51.030;3.706;2023-06-19T08:20:38;23.00;89.20
56046;DHT22;41913;51.030;3.706;2023-06-19T08:23:03;23.00;89.20
56046;DHT22;41913;51.030;3.706;2023-06-19T08:25:29;23.00;89.30
56046;DHT22;41913;51.030;3.706;2023-06-19T08:27:55;23.00;89.10
56046;DHT22;41913;51.030;3.706;2023-06-19T08:30:21;23.00;89.10
56046;DHT22;41913;51.030;3.706;2023-06-19T08:32:47;23.00;89.10
56046;DHT22;41913;51.030;3.706;2023-06-19T08:35:14;23.00;89.20
56046;DHT22;41913;51.030;3.706;2023-06-19T08:37:40;23.00;89.20
56046;DHT22;41913;51.030;3.706;2023-06-19T08:40:06;23.00;89.30
56046;DHT22;41913;51.030;3.706;2023-06-19T08:42:35;23.00;89.20
56046;DHT22;41913;51.030;3.706;2023-06-19T08:45:01;23.10;89.20
56046;DHT22;41913;51.030;3.706;2023-06-19T08:47:32;23.10;89.30
56046;DHT22;41913;51.030;3.706;2023-06-19T08:49:58;23.10;89.30
56046;DHT22;41913;51.030;3.706;2023-06-19T08:52:25;23.10;89.10
56046;DHT22;41913;51.030;3.706;2023-06-19T08:54:52;23.10;89.20
56046;DHT22;41913;51.030;3.706;2023-06-19T08:57:17;23.20;89.10
56046;DHT22;41913;51.030;3.706;2023-06-19T08:59:50;23.20;89.10
56046;DHT22;41913;51.030;3.706;2023-06-19T09:02:16;23.20;89.10
56046;DHT22;41913;51.030;3.706;2023-06-19T09:04:42;23.20;89.10
56046;DHT22;41913;51.030;3.706;2023-06-19T09:07:09;23.20;89.10
56046;DHT22;41913;51.030;3.706;2023-06-19T09:09:34;23.30;89.20
56046;DHT22;41913;51.030;3.706;2023-06-19T09:12:06;23.30;89.30
56046;DHT22;41913;51.030;3.706;2023-06-19T09:14:39;23.30;89.40
56046;DHT22;41913;51.030;3.706;2023-06-19T09:17:09;23.30;89.20
56046;DHT22;41913;51.030;3.706;2023-06-19T09:19:35;23.40;89.30
56046;DHT22;41913;51.030;3.706;2023-06-19T09:22:07;23.40;89.70
56046;DHT22;41913;51.030;3.706;2023-06-19T09:24:38;23.50;88.80
56046;DHT22;41913;51.030;3.706;2023-06-19T09:27:11;23.50;88.50
56046;DHT22;41913;51.030;3.706;2023-06-19T09:29:42;23.50;88.60
56046;DHT22;41913;51.030;3.706;2023-06-19T09:32:25;23.50;88.30
56046;DHT22;41913;51.030;3.706;2023-06-19T09:34:53;23.60;87.90
56046;DHT22;41913;51.030;3.706;2023-06-19T09:37:29;23.60;87.90
56046;DHT22;41913;51.030;3.706;2023-06-19T09:39:59;23.70;88.60
56046;DHT22;41913;51.030;3.706;2023-06-19T09:42:33;23.70;87.90
56046;DHT22;41913;51.030;3.706;2023-06-19T09:45:01;23.70;87.90
56046;DHT22;41913;51.030;3.706;2023-06-19T09:47:47;23.70;87.80
56046;DHT22;41913;51.030;3.706;2023-06-19T09:50:14;23.70;87.70
56046;DHT22;41913;51.030;3.706;2023-06-19T09:52:41;23.70;87.70
56046;DHT22;41913;51.030;3.706;2023-06-19T09:55:09;23.70;87.50
56046;DHT22;41913;51.030;3.706;2023-06-19T09:57:38;23.80;87.60
56046;DHT22;41913;51.030;3.706;2023-06-19T10:00:06;23.80;87.30
56046;DHT22;41913;51.030;3.706;2023-06-19T10:02:42;23.80;87.30
56046;DHT22;41913;51.030;3.706;2023-06-19T10:05:08;23.80;87.50
56046;DHT22;41913;51.030;3.706;2023-06-19T10:07:37;23.80;87.50
56046;DHT22;41913;51.030;3.706;2023-06-19T10:10:23;23.90;87.20
56046;DHT22;41913;51.030;3.706;2023-06-19T10:12:49;23.90;87.00
56046;DHT22;41913;51.030;3.706;2023-06-19T10:15:17;23.90;87.40
56046;DHT22;41913;51.030;3.706;2023-06-19T10:17:49;23.90;87.20
56046;DHT22;41913;51.030;3.706;2023-06-19T10:20:25;23.90;87.30
56046;DHT22;41913;51.030;3.706;2023-06-19T10:22:52;23.90;87.00
56046;DHT22;41913;51.030;3.706;2023-06-19T10:25:23;23.90;86.80
56046;DHT22;41913;51.030;3.706;2023-06-19T10:27:50;23.90;86.90
56046;DHT22;41913;51.030;3.706;2023-06-19T10:30:19;23.90;86.80
56046;DHT22;41913;51.030;3.706;2023-06-19T10:32:46;24.00;86.90
56046;DHT22;41913;51.030;3.706;2023-06-19T10:35:16;24.00;87.00
56046;DHT22;41913;51.030;3.706;2023-06-19T10:37:44;24.00;87.00
56046;DHT22;41913;51.030;3.706;2023-06-19T10:40:11;24.00;86.90
56046;DHT22;41913;51.030;3.706;2023-06-19T10:42:48;24.00;87.50
56046;DHT22;41913;51.030;3.706;2023-06-19T10:45:15;24.00;87.60
56046;DHT22;41913;51.030;3.706;2023-06-19T10:47:45;24.00;87.70
56046;DHT22;41913;51.030;3.706;2023-06-19T10:50:14;24.00;87.00
56046;DHT22;41913;51.030;3.706;2023-06-19T10:52:43;24.00;86.90
56046;DHT22;41913;51.030;3.706;2023-06-19T10:55:11;24.00;86.80
56046;DHT22;41913;51.030;3.706;2023-06-19T10:57:38;24.10;86.80
56046;DHT22;41913;51.030;3.706;2023-06-19T11:00:05;24.10;86.90
56046;DHT22;41913;51.030;3.706;2023-06-19T11:02:39;24.10;87.60
56046;DHT22;41913;51.030;3.706;2023-06-19T11:05:06;24.10;87.40
56046;DHT22;41913;51.030;3.706;2023-06-19T11:07:33;24.10;87.40
56046;DHT22;41913;51.030;3.706;2023-06-19T11:09:59;24.10;87.10
56046;DHT22;41913;51.030;3.706;2023-06-19T11:12:25;24.10;86.80
56046;DHT22;41913;51.030;3.706;2023-06-19T11:14:51;24.10;86.80
56046;DHT22;41913;51.030;3.706;2023-06-19T11:17:17;24.10;86.90
56046;DHT22;41913;51.030;3.706;2023-06-19T11:19:47;24.10;87.40
56046;DHT22;41913;51.030;3.706;2023-06-19T11:22:13;24.10;87.00
56046;DHT22;41913;51.030;3.706;2023-06-19T11:24:46;24.10;86.70
56046;DHT22;41913;51.030;3.706;2023-06-19T11:27:22;24.10;87.00
56046;DHT22;41913;51.030;3.706;2023-06-19T11:29:58;24.10;86.90
56046;DHT22;41913;51.030;3.706;2023-06-19T11:32:30;24.10;87.10
56046;DHT22;41913;51.030;3.706;2023-06-19T11:34:56;24.10;86.80
56046;DHT22;41913;51.030;3.706;2023-06-19T11:37:22;24.10;87.20
56046;DHT22;41913;51.030;3.706;2023-06-19T11:39:49;24.10;87.00
56046;DHT22;41913;51.030;3.706;2023-06-19T11:42:16;24.20;86.90
56046;DHT22;41913;51.030;3.706;2023-06-19T11:44:59;24.20;86.80
56046;DHT22;41913;51.030;3.706;2023-06-19T11:47:26;24.20;87.20
56046;DHT22;41913;51.030;3.706;2023-06-19T11:49:52;24.20;87.30
56046;DHT22;41913;51.030;3.706;2023-06-19T11:52:17;24.20;86.90
56046;DHT22;41913;51.030;3.706;2023-06-19T11:54:43;24.20;86.90
56046;DHT22;41913;51.030;3.706;2023-06-19T11:57:09;24.20;86.90
56046;DHT22;41913;51.030;3.706;2023-06-19T11:59:41;24.20;87.20
56046;DHT22;41913;51.030;3.706;2023-06-19T12:02:09;24.20;87.50
56046;DHT22;41913;51.030;3.706;2023-06-19T12:04:35;24.20;87.20
56046;DHT22;41913;51.030;3.706;2023-06-19T12:07:01;24.20;87.30
56046;DHT22;41913;51.030;3.706;2023-06-19T12:09:28;24.20;87.00
56046;DHT22;41913;51.030;3.706;2023-06-19T12:11:54;24.20;86.90
56046;DHT22;41913;51.030;3.706;2023-06-19T12:14:19;24.20;87.40
56046;DHT22;41913;51.030;3.706;2023-06-19T12:16:48;24.20;87.00
56046;DHT22;41913;51.030;3.706;2023-06-19T12:19:14;24.20;87.20
56046;DHT22;41913;51.030;3.706;2023-06-19T12:21:40;24.20;87.30
56046;DHT22;41913;51.030;3.706;2023-06-19T12:24:07;24.30;87.40
56046;DHT22;41913;51.030;3.706;2023-06-19T12:26:35;24.30;87.10
56046;DHT22;41913;51.030;3.706;2023-06-19T12:29:06;24.30;87.30
56046;DHT22;41913;51.030;3.706;2023-06-19T12:31:33;24.30;86.90
56046;DHT22;41913;51.030;3.706;2023-06-19T12:33:59;24.30;87.20
56046;DHT22;41913;51.030;3.706;2023-06-19T12:36:27;24.30;87.20
56046;DHT22;41913;51.030;3.706;2023-06-19T12:38:53;24.30;87.30
56046;DHT22;41913;51.030;3.706;2023-06-19T12:41:21;24.30;87.00
56046;DHT22;41913;51.030;3.706;2023-06-19T12:43:47;24.30;87.00
56046;DHT22;41913;51.030;3.706;2023-06-19T12:46:13;24.30;87.10
56046;DHT22;41913;51.030;3.706;2023-06-19T12:48:40;24.30;87.00
56046;DHT22;41913;51.030;3.706;2023-06-19T12:51:06;24.30;86.70
56046;DHT22;41913;51.030;3.706;2023-06-19T12:53:32;24.30;86.90
56046;DHT22;41913;51.030;3.706;2023-06-19T12:55:58;24.30;87.00
56046;DHT22;41913;51.030;3.706;2023-06-19T12:58:24;24.30;86.80
56046;DHT22;41913;51.030;3.706;2023-06-19T13:00:50;24.30;86.80
56046;DHT22;41913;51.030;3.706;2023-06-19T13:03:16;24.30;86.80
56046;DHT22;41913;51.030;3.706;2023-06-19T13:05:41;24.30;86.70
56046;DHT22;41913;51.030;3.706;2023-06-19T13:08:07;24.30;86.80
56046;DHT22;41913;51.030;3.706;2023-06-19T13:10:33;24.30;86.90
56046;DHT22;41913;51.030;3.706;2023-06-19T13:12:58;24.30;86.70
56046;DHT22;41913;51.030;3.706;2023-06-19T13:15:24;24.30;86.70
56046;DHT22;41913;51.030;3.706;2023-06-19T13:17:51;24.40;86.80
56046;DHT22;41913;51.030;3.706;2023-06-19T13:20:17;24.40;86.70
56046;DHT22;41913;51.030;3.706;2023-06-19T13:22:42;24.40;86.70
56046;DHT22;41913;51.030;3.706;2023-06-19T13:25:08;24.40;86.80
56046;DHT22;41913;51.030;3.706;2023-06-19T13:27:34;24.40;86.90
56046;DHT22;41913;51.030;3.706;2023-06-19T13:30:01;24.30;86.70
56046;DHT22;41913;51.030;3.706;2023-06-19T13:32:27;24.40;86.60
56046;DHT22;41913;51.030;3.706;2023-06-19T13:34:52;24.40;86.80
56046;DHT22;41913;51.030;3.706;2023-06-19T13:37:19;24.40;86.80
56046;DHT22;41913;51.030;3.706;2023-06-19T13:39:45;24.40;86.70
56046;DHT22;41913;51.030;3.706;2023-06-19T13:42:11;24.40;86.60
56046;DHT22;41913;51.030;3.706;2023-06-19T13:44:37;24.40;86.80
56046;DHT22;41913;51.030;3.706;2023-06-19T13:47:03;24.40;86.50
56046;DHT22;41913;51.030;3.706;2023-06-19T13:49:29;24.40;86.70
56046;DHT22;41913;51.030;3.706;2023-06-19T13:51:56;24.50;86.50
56046;DHT22;41913;51.030;3.706;2023-06-19T13:54:22;24.50;86.20
56046;DHT22;41913;51.030;3.706;2023-06-19T13:56:48;24.50;85.80
56046;DHT22;41913;51.030;3.706;2023-06-19T13:59:14;24.50;85.80
56046;DHT22;41913;51.030;3.706;2023-06-19T14:01:40;24.50;85.90
56046;DHT22;41913;51.030;3.706;2023-06-19T14:04:07;24.50;86.00
56046;DHT22;41913;51.030;3.706;2023-06-19T14:06:34;24.50;86.10
56046;DHT22;41913;51.030;3.706;2023-06-19T14:09:01;24.50;86.10
56046;DHT22;41913;51.030;3.706;2023-06-19T14:11:27;24.50;86.20
56046;DHT22;41913;51.030;3.706;2023-06-19T14:13:54;24.50;86.30
56046;DHT22;41913;51.030;3.706;2023-06-19T14:16:20;24.50;86.40
56046;DHT22;41913;51.030;3.706;2023-06-19T14:18:45;24.50;86.30
56046;DHT22;41913;51.030;3.706;2023-06-19T14:21:11;24.50;86.30
56046;DHT22;41913;51.030;3.706;2023-06-19T14:23:38;24.50;86.10
56046;DHT22;41913;51.030;3.706;2023-06-19T14:26:09;24.50;86.20
56046;DHT22;41913;51.030;3.706;2023-06-19T14:28:37;24.50;86.20
56046;DHT22;41913;51.030;3.706;2023-06-19T14:31:05;24.50;86.00
56046;DHT22;41913;51.030;3.706;2023-06-19T14:33:31;24.50;85.80
56046;DHT22;41913;51.030;3.706;2023-06-19T14:35:59;24.50;85.80
56046;DHT22;41913;51.030;3.706;2023-06-19T14:38:26;24.50;85.80
56046;DHT22;41913;51.030;3.706;2023-06-19T14:40:57;24.50;85.90
56046;DHT22;41913;51.030;3.706;2023-06-19T14:43:27;24.50;85.60
56046;DHT22;41913;51.030;3.706;2023-06-19T14:45:53;24.50;85.80
56046;DHT22;41913;51.030;3.706;2023-06-19T14:48:19;24.50;85.60
56046;DHT22;41913;51.030;3.706;2023-06-19T14:50:45;24.60;85.70
56046;DHT22;41913;51.030;3.706;2023-06-19T14:53:10;24.60;86.00
56046;DHT22;41913;51.030;3.706;2023-06-19T14:55:36;24.60;85.90
56046;DHT22;41913;51.030;3.706;2023-06-19T14:58:05;24.60;85.80
56046;DHT22;41913;51.030;3.706;2023-06-19T15:00:31;24.60;85.80
56046;DHT22;41913;51.030;3.706;2023-06-19T15:02:57;24.60;86.60
56046;DHT22;41913;51.030;3.706;2023-06-19T15:05:24;24.60;86.00
56046;DHT22;41913;51.030;3.706;2023-06-19T15:07:49;24.60;86.00
56046;DHT22;41913;51.030;3.706;2023-06-19T15:10:16;24.70;85.80
56046;DHT22;41913;51.030;3.706;2023-06-19T15:12:42;24.70;85.80
56046;DHT22;41913;51.030;3.706;2023-06-19T15:15:08;24.60;85.70
56046;DHT22;41913;51.030;3.706;2023-06-19T15:17:33;24.70;85.80
56046;DHT22;41913;51.030;3.706;2023-06-19T15:20:00;24.60;85.80
56046;DHT22;41913;51.030;3.706;2023-06-19T15:22:25;24.60;85.80
56046;DHT22;41913;51.030;3.706;2023-06-19T15:24:52;24.60;85.80
56046;DHT22;41913;51.030;3.706;2023-06-19T15:27:18;24.70;85.90
56046;DHT22;41913;51.030;3.706;2023-06-19T15:29:43;24.70;86.10